ADDS METAR Data INFO
IDs: Format: Raw Decoded Include TAF

Data at: 0936 UTC 11 Dec 2017

KVBW 110915Z AUTO 00000KT 10SM SCT050 M05/M06 A2998 RMK AO2 T10491061
KVBW 110855Z AUTO 34003KT 10SM SCT050 M05/M06 A2999 RMK AO2 T10471060
KVBW 110835Z AUTO 34003KT 10SM CLR M05/M06 A2999 RMK AO2 T10461058
KVBW 110815Z AUTO 34003KT 10SM CLR M04/M06 A2999 RMK AO2 T10451060
KVBW 110755Z AUTO 34004KT 10SM CLR M04/M06 A2999 RMK AO2 T10401056
KVBW 110735Z AUTO 00000KT 10SM CLR M04/M06 A2998 RMK AO2 T10371062
KVBW 110715Z AUTO 00000KT 10SM CLR M04/M05 A2998 RMK AO2 T10361054
KVBW 110655Z AUTO 00000KT 10SM CLR M03/M05 A2997 RMK AO2 T10331053
KVBW 110635Z AUTO 03003KT 10SM CLR M03/M06 A2997 RMK AO2 T10261056
KVBW 110615Z AUTO 00000KT 10SM CLR M02/M05 A2997 RMK AO2 T10231055
KVBW 110555Z AUTO 00000KT 10SM CLR M02/M05 A2998 RMK AO2 T10181055 10005 21018 400311034
KVBW 110535Z AUTO 00000KT 10SM CLR M01/M06 A2998 RMK AO2 T10141058
KVBW 110515Z AUTO 15006KT 110V180 10SM CLR 00/M06 A2998 RMK AO2 T10051058
KVBW 110455Z AUTO 10007KT 10SM CLR 00/M05 A3000 RMK AO2 T10011055
KVBW 110435Z AUTO 10006KT 10SM CLR 00/M05 A3000 RMK AO2 T10051052
KVBW 110415Z AUTO 00000KT 10SM CLR 00/M05 A3000 RMK AO2 T10041055
KVBW 110355Z AUTO 09005KT 10SM CLR M01/M05 A3000 RMK AO2 T10081055
KVBW 110335Z AUTO 12008KT 10SM CLR M01/M06 A3001 RMK AO2 T10061059
KVBW 110315Z AUTO 16007KT 10SM CLR M01/M06 A3001 RMK AO2 T10061060
KVBW 110255Z AUTO 15009KT 10SM SCT085 00/M06 A3000 RMK AO2 T10021060
KVBW 110235Z AUTO 15006KT 10SM OVC085 00/M06 A3000 RMK AO2 T00001059
KVBW 110215Z AUTO 12009KT 110V170 10SM OVC085 00/M06 A3001 RMK AO2 T00001060
KVBW 110155Z AUTO 18011KT 10SM OVC085 01/M06 A3000 RMK AO2 T00051064
KVBW 110135Z AUTO 18011KT 10SM OVC085 00/M06 A3001 RMK AO2 T00031064
KVBW 110115Z AUTO 18011KT 10SM OVC085 00/M06 A3001 RMK AO2 T00021063
KVBW 110055Z AUTO 19010KT 10SM OVC085 00/M07 A3001 RMK AO2 T00041067
KVBW 110035Z AUTO 18007KT 10SM BKN085 00/M07 A3002 RMK AO2 T00001066
KVBW 110015Z AUTO 18007KT 10SM CLR 00/M07 A3001 RMK AO2 T10021068
KVBW 102355Z AUTO 19005KT 10SM CLR 00/M07 A3001 RMK AO2 T10011070 10031 21005
KVBW 102335Z AUTO 18007KT 10SM CLR 00/M07 A3001 RMK AO2 T00001070
KVBW 102315Z AUTO 19006KT 10SM CLR 00/M07 A3000 RMK AO2 T00011070
KVBW 102255Z AUTO 20006KT 10SM CLR 00/M07 A3000 RMK AO2 T00001071
KVBW 102235Z AUTO 20006KT 10SM CLR 00/M07 A3000 RMK AO2 T00031070
KVBW 102215Z AUTO 20005KT 10SM CLR 00/M06 A3000 RMK AO2 T00031065
KVBW 102155Z AUTO 20004KT 10SM CLR 00/M06 A3000 RMK AO2 T00021060
KVBW 102135Z AUTO 22006KT 10SM CLR 02/M06 A3000 RMK AO2 T00151062
KVBW 102115Z AUTO 21006KT 10SM CLR 02/M07 A3000 RMK AO2 T00231067
KVBW 102055Z AUTO 23003KT 10SM CLR 03/M07 A3000 RMK AO2 T00271067
KVBW 102035Z AUTO 21007KT 10SM CLR 03/M07 A2999 RMK AO2 T00301071
KVBW 102015Z AUTO 21006KT 10SM CLR 03/M06 A2999 RMK AO2 T00301065
KVBW 101955Z AUTO 23005KT 10SM CLR 03/M07 A3000 RMK AO2 T00311068
KVBW 101935Z AUTO 21006G14KT 10SM CLR 03/M06 A3000 RMK AO2 T00301062
KVBW 101915Z AUTO 23010KT 10SM SCT049 03/M06 A3001 RMK AO2 T00281064
KVBW 101855Z AUTO 21008KT 170V240 10SM SCT049 03/M07 A3001 RMK AO2 T00261069
KVBW 101835Z AUTO 23006G09KT 10SM CLR 02/M07 A3002 RMK AO2 T00221073
KVBW 101815Z AUTO 25006KT 10SM SCT047 02/M06 A3002 RMK AO2 T00221065
KVBW 101755Z AUTO 23008KT 220V280 10SM BKN049 02/M06 A3002 RMK AO2 T00211065 10023 21021
KVBW 101735Z AUTO 22007KT 10SM SCT047 02/M06 A3003 RMK AO2 T00171064
KVBW 101715Z AUTO 24008KT 10SM SCT045 02/M06 A3005 RMK AO2 T00161061
KVBW 101655Z AUTO 25005KT 10SM SCT045 01/M07 A3006 RMK AO2 T00121070
KVBW 101635Z AUTO 26004KT 10SM SCT045 01/M08 A3007 RMK AO2 T00061076
KVBW 101615Z AUTO 29007KT 10SM SCT040 SCT045 00/M07 A3007 RMK AO2 T00041072
KVBW 101555Z AUTO 30011G15KT 10SM SCT040 00/M07 A3007 RMK AO2 T00021069
KVBW 101535Z AUTO 28008G17KT 10SM SCT042 SCT047 01/M07 A3007 RMK AO2 T00051068
KVBW 101515Z AUTO 27009G16KT 10SM BKN042 BKN048 00/M07 A3006 RMK AO2 T00041067
KVBW 101455Z AUTO 28006KT 10SM BKN042 01/M07 A3005 RMK AO2 T00051071
KVBW 101435Z AUTO 29006KT 10SM SCT042 00/M07 A3004 RMK AO2 T00021071
KVBW 101415Z AUTO 10SM SCT043 00/M07 A3003 RMK AO2 T00001071
KVBW 101355Z AUTO 27005KT 10SM SCT043 00/M07 A3002 RMK AO2 T00001074
KVBW 101335Z AUTO 28005KT 10SM BKN041 M02/M07 A3002 RMK AO2 T10161070
KVBW 101315Z AUTO 26003KT 10SM BKN041 M01/M07 A3002 RMK AO2 T10121072
KVBW 101255Z AUTO 26003KT 10SM OVC041 M01/M07 A3001 RMK AO2 T10131070
KVBW 101235Z AUTO 00000KT 10SM OVC043 M01/M07 A3000 RMK AO2 T10141073
KVBW 101215Z AUTO 00000KT 10SM OVC043 M01/M07 A2999 RMK AO2 T10111075
KVBW 101155Z AUTO 28004KT 10SM OVC043 M01/M08 A2999 RMK AO2 70012 T10111077 10000 21034
KVBW 101135Z AUTO 31005KT 10SM OVC043 M01/M08 A2998 RMK AO2 T10121078
KVBW 101115Z AUTO 28005KT 10SM OVC041 M01/M08 A2997 RMK AO2 T10111078
KVBW 101055Z AUTO 29011G19KT 10SM SCT037 OVC045 M01/M08 A2995 RMK AO2 T10101076
KVBW 101035Z AUTO 28011G16KT 10SM OVC045 M01/M07 A2995 RMK AO2 T10101074
KVBW 101015Z AUTO 29008G14KT 10SM OVC045 M01/M07 A2994 RMK AO2 T10101075
KVBW 100955Z AUTO 28004KT 10SM BKN043 OVC049 M02/M07 A2994 RMK AO2 T10201067
KVBW 100935Z AUTO 00000KT 10SM OVC047 M02/M06 A2992 RMK AO2 T10251064
KVBW 100915Z AUTO 15003KT 10SM BKN048 OVC050 M02/M07 A2992 RMK AO2 T10201074
KVBW 100855Z AUTO 00000KT 10SM BKN050 OVC060 M01/M08 A2991 RMK AO2 T10141078
KVBW 100835Z AUTO 00000KT 10SM OVC050 M03/M07 A2991 RMK AO2 T10321069
KVBW 100815Z AUTO 28003KT 10SM BKN050 M02/M08 A2989 RMK AO2 T10161081
KVBW 100755Z AUTO 29004KT 10SM SCT044 BKN050 M02/M07 A2988 RMK AO2 T10201070
KVBW 100735Z AUTO 00000KT 10SM BKN048 M01/M07 A2988 RMK AO2 T10091075
KVBW 100715Z AUTO 29003KT 10SM OVC050 00/M06 A2988 RMK AO2 T10051065
KVBW 100655Z AUTO 31007KT 10SM BKN046 OVC050 00/M06 A2987 RMK AO2 T10051060
KVBW 100635Z AUTO 24004KT 10SM OVC050 M01/M05 A2985 RMK AO2 T10081052
KVBW 100615Z AUTO 27007G14KT 10SM OVC050 00/M06 A2985 RMK AO2 T10031062
KVBW 100555Z AUTO 22003KT 10SM OVC050 M02/M03 A2985 RMK AO2 T10161034 11007 21020 400051020
KVBW 100535Z AUTO 00000KT 10SM OVC050 M01/M04 A2984 RMK AO2 T10101044
KVBW 100515Z AUTO 25005KT 10SM OVC050 M01/M03 A2984 RMK AO2 T10131035
KVBW 100455Z AUTO 28006KT 10SM OVC060 M01/M04 A2984 RMK AO2 T10121036
KVBW 100435Z AUTO 27004KT 5SM BKN060 BKN070 OVC110 M02/M02 A2983 RMK AO2 T10201022
KVBW 100410Z AUTO 00000KT 4SM OVC110 M02/M02 A2982 RMK AO2 T10201022
KVBW 100355Z AUTO 00000KT 4SM SCT080 OVC100 M02/M02 A2982 RMK AO2 T10171020
KVBW 100335Z AUTO 28004KT 5SM BKN070 OVC090 M01/M02 A2982 RMK AO2 T10151016
KVBW 100315Z AUTO 28003KT 5SM OVC070 M01/M02 A2981 RMK AO2 T10151017
KVBW 100255Z AUTO 02006KT 4SM BKN070 OVC080 M02/M02 A2981 RMK AO2 T10161017
KVBW 100235Z AUTO 10005KT 4SM BKN070 OVC080 M02/M02 A2980 RMK AO2 T10161018
KVBW 100215Z AUTO 00000KT 5SM OVC070 M02/M02 A2980 RMK AO2 T10161018
KVBW 100155Z AUTO 00000KT 5SM SCT013 OVC080 M01/M02 A2980 RMK AO2 T10141016
KVBW 100135Z AUTO 00000KT 5SM OVC013 M01/M01 A2979 RMK AO2 T10111014
KVBW 100115Z AUTO 00000KT 5SM OVC013 M01/M01 A2979 RMK AO2 T10101013
KVBW 100055Z AUTO 00000KT 7SM OVC011 M01/M01 A2978 RMK AO2 T10101014
KVBW 100035Z AUTO 00000KT 7SM OVC011 M01/M01 A2979 RMK AO2 T10081012
KVBW 100015Z AUTO 00000KT 7SM OVC013 M01/M01 A2978 RMK AO2 T10081013
KVBW 092355Z AUTO 17003KT 7SM OVC013 M01/M01 A2977 RMK AO2 60002 T10071013 11001 21008
KVBW 092335Z AUTO 11004KT 10SM OVC015 M01/M01 A2977 RMK AO2 T10081015
KVBW 092315Z AUTO 16003KT 10SM SCT010 OVC015 M01/M01 A2976 RMK AO2 T10071014
KVBW 092255Z AUTO 13004KT 7SM SCT007 BKN010 OVC016 M01/M01 A2976 RMK AO2 T10081014
KVBW 092235Z AUTO 13003KT 7SM BKN007 OVC012 M01/M01 A2975 RMK AO2 T10071011
KVBW 092215Z AUTO 14004KT 7SM OVC012 M01/M01 A2974 RMK AO2 T10071012
KVBW 092155Z AUTO 16005KT 7SM OVC012 M01/M01 A2974 RMK AO2 T10071012